Time;durP1;ratioP1;P1;durP2;ratioP2;P2;SDS_P1;SDS_P2;PMS_P1;PMS_P2;Temp;Humidity;BMP_temperature;BMP_pressure;BME280_temperature;BME280_humidity;BME280_pressure;Samples;Min_cycle;Max_cycle;Signal;HPM_P1;HPM_P2
2022/04/14 00:01:56;;;;;;;32.10;16.02;;;7.50;99.90;;;;;;5091573;28;20103;-68
2022/04/14 00:04:22;;;;;;;33.40;17.20;;;7.40;99.90;;;;;;5091338;28;20119;-67
2022/04/14 00:06:48;;;;;;;28.15;15.60;;;7.40;99.90;;;;;;5091209;28;20107;-65
2022/04/14 00:09:13;;;;;;;32.25;15.85;;;7.30;99.90;;;;;;5090916;28;20093;-67
2022/04/14 00:11:39;;;;;;;30.63;15.18;;;7.30;99.90;;;;;;5091319;28;20375;-66
2022/04/14 00:14:06;;;;;;;29.30;16.25;;;7.20;99.90;;;;;;5084884;28;20036;-66
2022/04/14 00:16:32;;;;;;;32.75;16.00;;;7.20;99.90;;;;;;5070870;28;20059;-67
2022/04/14 00:18:58;;;;;;;33.15;16.38;;;7.20;99.90;;;;;;5070859;28;20020;-65
2022/04/14 00:21:23;;;;;;;30.98;17.02;;;7.20;99.90;;;;;;5089355;28;20028;-67
2022/04/14 00:23:49;;;;;;;32.47;17.52;;;7.10;99.90;;;;;;5091079;28;20046;-68
2022/04/14 00:26:15;;;;;;;33.42;16.63;;;7.10;99.90;;;;;;5090720;28;20031;-67
2022/04/14 00:28:41;;;;;;;29.58;15.18;;;7.10;99.90;;;;;;5086503;28;20023;-66
2022/04/14 00:31:07;;;;;;;33.90;16.73;;;7.10;99.90;;;;;;5083341;28;20028;-66
2022/04/14 00:33:32;;;;;;;35.10;17.42;;;7.20;99.90;;;;;;5087506;28;20103;-66
2022/04/14 00:35:58;;;;;;;33.88;17.00;;;7.20;99.90;;;;;;5087766;28;20123;-67
2022/04/14 00:38:25;;;;;;;31.58;16.38;;;7.20;99.90;;;;;;5087829;28;20445;-67
2022/04/14 00:40:52;;;;;;;33.65;17.88;;;7.20;99.90;;;;;;5087368;28;20020;-67
2022/04/14 00:43:20;;;;;;;30.67;16.65;;;7.20;99.90;;;;;;5087292;28;20412;-67
2022/04/14 00:45:46;;;;;;;36.63;17.00;;;7.20;99.90;;;;;;5068202;28;20032;-66
2022/04/14 00:48:13;;;;;;;31.55;16.75;;;7.20;99.90;;;;;;5067530;28;20450;-66
2022/04/14 00:50:39;;;;;;;35.10;18.05;;;7.10;99.90;;;;;;5078920;28;20023;-66
2022/04/14 00:53:05;;;;;;;39.50;18.48;;;7.00;99.90;;;;;;5087345;28;20111;-66
2022/04/14 00:55:31;;;;;;;35.97;18.00;;;7.00;99.90;;;;;;5086113;28;20083;-66
2022/04/14 00:57:56;;;;;;;34.95;17.42;;;7.00;99.90;;;;;;5087106;28;20025;-66
2022/04/14 01:00:22;;;;;;;42.65;19.45;;;7.00;99.90;;;;;;5082610;28;20051;-65
2022/04/14 01:02:48;;;;;;;44.40;18.30;;;7.00;99.90;;;;;;5087134;28;20028;-66
2022/04/14 01:05:15;;;;;;;40.65;18.80;;;7.20;99.90;;;;;;5087214;28;20036;-67
2022/04/14 01:07:44;;;;;;;39.53;17.33;;;7.20;99.90;;;;;;5087044;28;20230;-66
2022/04/14 01:10:10;;;;;;;45.90;18.92;;;7.30;99.90;;;;;;5087286;28;20035;-67
2022/04/14 01:12:36;;;;;;;36.67;16.13;;;7.40;99.90;;;;;;5087386;28;20024;-67
2022/04/14 01:15:02;;;;;;;32.85;15.52;;;7.30;99.90;;;;;;5077191;28;20269;-67
2022/04/14 01:17:28;;;;;;;30.08;16.25;;;7.20;99.90;;;;;;5066727;28;20055;-67
2022/04/14 01:19:54;;;;;;;39.90;17.92;;;7.10;99.90;;;;;;5072582;28;20447;-67
2022/04/14 01:22:24;;;;;;;34.28;15.85;;;7.00;99.90;;;;;;5087575;28;20021;-67
2022/04/14 01:24:55;;;;;;;35.38;16.42;;;7.00;99.90;;;;;;5086822;28;20050;-66
2022/04/14 01:27:20;;;;;;;34.75;16.15;;;6.90;99.90;;;;;;5087377;28;20555;-67
2022/04/14 01:29:46;;;;;;;37.63;17.10;;;6.90;99.90;;;;;;5084062;28;20495;-67
2022/04/14 01:32:12;;;;;;;48.22;20.48;;;6.90;99.90;;;;;;5086848;28;20050;-67
2022/04/14 01:34:37;;;;;;;40.00;18.42;;;7.00;99.90;;;;;;5087007;28;20050;-67
2022/04/14 01:37:03;;;;;;;46.00;20.90;;;7.00;99.90;;;;;;5087124;28;20024;-66
2022/04/14 01:39:30;;;;;;;41.42;20.20;;;7.20;99.90;;;;;;5090169;28;20407;-66
2022/04/14 01:41:55;;;;;;;46.50;19.58;;;7.10;99.90;;;;;;5090077;28;20024;-66
2022/04/14 01:44:22;;;;;;;43.17;19.38;;;7.10;99.90;;;;;;5087693;28;20032;-66
2022/04/14 01:46:47;;;;;;;45.42;21.27;;;7.00;99.90;;;;;;5082824;28;20031;-67
2022/04/14 01:49:13;;;;;;;46.70;21.20;;;7.10;99.90;;;;;;5067962;28;20028;-66
2022/04/14 01:51:39;;;;;;;48.42;23.42;;;7.10;99.90;;;;;;5066571;28;20491;-67
2022/04/14 01:54:05;;;;;;;49.92;21.75;;;7.20;99.90;;;;;;5066542;28;20021;-66
2022/04/14 01:56:32;;;;;;;52.70;21.58;;;7.20;99.90;;;;;;5068246;28;20085;-66
2022/04/14 01:58:58;;;;;;;49.10;21.30;;;7.20;99.90;;;;;;5083696;28;20020;-65
2022/04/14 02:01:24;;;;;;;44.90;19.15;;;7.00;99.90;;;;;;5090883;28;20032;-66
2022/04/14 02:03:50;;;;;;;49.78;19.08;;;7.00;99.90;;;;;;5079260;28;20021;-66
2022/04/14 02:06:17;;;;;;;51.97;19.10;;;6.90;99.90;;;;;;5073279;28;20028;-66
2022/04/14 02:08:44;;;;;;;57.20;18.63;;;6.90;99.90;;;;;;5086349;28;20093;-67
2022/04/14 02:11:10;;;;;;;45.95;17.35;;;7.00;99.90;;;;;;5092148;28;20030;-66
2022/04/14 02:13:37;;;;;;;41.50;16.10;;;7.00;99.90;;;;;;5093279;28;20031;-66
2022/04/14 02:16:03;;;;;;;36.70;16.95;;;7.00;99.90;;;;;;5093068;28;20097;-66
2022/04/14 02:18:29;;;;;;;39.28;15.10;;;6.90;99.90;;;;;;5084277;28;20021;-66
2022/04/14 02:20:55;;;;;;;42.42;17.00;;;6.90;99.90;;;;;;5073011;28;20435;-66
2022/04/14 02:23:21;;;;;;;33.10;14.95;;;6.90;99.90;;;;;;5073012;28;20024;-67
2022/04/14 02:25:47;;;;;;;37.28;15.27;;;7.00;99.90;;;;;;5072814;28;20037;-67
2022/04/14 02:28:15;;;;;;;39.42;15.93;;;7.00;99.90;;;;;;5081411;28;20066;-67
2022/04/14 02:30:41;;;;;;;37.08;16.10;;;6.90;99.90;;;;;;5074498;28;20074;-67
2022/04/14 02:33:07;;;;;;;39.33;16.33;;;6.80;99.90;;;;;;5069779;28;20017;-67
2022/04/14 02:35:32;;;;;;;52.22;20.42;;;6.80;99.90;;;;;;5069517;28;20025;-66
2022/04/14 02:37:59;;;;;;;49.25;18.02;;;6.80;99.90;;;;;;5076078;28;20102;-66
2022/04/14 02:40:25;;;;;;;59.67;21.58;;;6.90;99.90;;;;;;5089672;28;20024;-66
2022/04/14 02:42:53;;;;;;;162.35;34.72;;;7.00;99.90;;;;;;5092845;28;20052;-66
2022/04/14 02:45:21;;;;;;;95.30;26.23;;;7.50;99.90;;;;;;5093122;28;20429;-67
2022/04/14 02:47:47;;;;;;;260.55;31.20;;;7.50;99.90;;;;;;5091494;28;20026;-67
2022/04/14 02:50:13;;;;;;;152.05;29.45;;;7.70;99.90;;;;;;5072416;28;20028;-68
2022/04/14 02:52:38;;;;;;;128.10;25.65;;;7.70;99.90;;;;;;5072640;28;20025;-67
2022/04/14 02:55:04;;;;;;;111.43;23.67;;;7.70;99.90;;;;;;5072663;28;20028;-67
2022/04/14 02:57:30;;;;;;;119.55;23.15;;;7.70;99.90;;;;;;5074653;28;20032;-67
2022/04/14 02:59:57;;;;;;;259.42;25.88;;;7.60;99.90;;;;;;5092361;28;20028;-67
2022/04/14 03:02:23;;;;;;;271.80;27.33;;;7.80;99.90;;;;;;5092396;28;20016;-67
2022/04/14 03:04:49;;;;;;;260.20;23.67;;;7.90;99.90;;;;;;5075578;28;20381;-67
2022/04/14 03:07:14;;;;;;;305.88;25.75;;;8.10;99.90;;;;;;5071731;28;20555;-66
2022/04/14 03:09:40;;;;;;;172.55;19.05;;;8.20;99.90;;;;;;5092103;28;20111;-67
2022/04/14 03:12:06;;;;;;;243.55;21.20;;;8.40;99.90;;;;;;5090715;28;20048;-67
2022/04/14 03:14:32;;;;;;;358.35;25.95;;;8.50;99.90;;;;;;5092168;28;20020;-67
2022/04/14 03:16:58;;;;;;;269.85;21.42;;;8.60;99.90;;;;;;5092107;28;20052;-67
2022/04/14 03:19:25;;;;;;;232.27;18.63;;;8.60;99.90;;;;;;5079671;28;20028;-67
2022/04/14 03:21:51;;;;;;;187.73;22.75;;;8.70;99.90;;;;;;5071832;28;20024;-67
2022/04/14 03:24:16;;;;;;;216.00;22.05;;;8.60;99.90;;;;;;5071791;28;20480;-67
2022/04/14 03:26:42;;;;;;;192.93;24.33;;;8.60;99.90;;;;;;5071538;28;20115;-67
2022/04/14 03:29:08;;;;;;;256.40;23.73;;;8.60;99.90;;;;;;5087350;28;20635;-67
2022/04/14 03:31:33;;;;;;;248.50;22.60;;;8.60;99.90;;;;;;5091852;28;20200;-67
2022/04/14 03:33:59;;;;;;;271.02;23.50;;;8.60;99.90;;;;;;5083301;28;20024;-68
2022/04/14 03:36:25;;;;;;;240.50;26.65;;;8.70;99.90;;;;;;5071483;28;20054;-67
2022/04/14 03:38:51;;;;;;;153.23;21.48;;;8.60;99.90;;;;;;5084510;28;20519;-67
2022/04/14 03:41:16;;;;;;;199.23;19.98;;;8.60;99.90;;;;;;5091760;28;20396;-68
2022/04/14 03:43:42;;;;;;;253.07;17.73;;;8.60;99.90;;;;;;5091791;28;20073;-67
2022/04/14 03:46:08;;;;;;;246.18;18.20;;;8.70;99.90;;;;;;5091640;28;20039;-67
2022/04/14 03:48:34;;;;;;;219.55;17.85;;;8.90;99.90;;;;;;5088122;28;20253;-67
2022/04/14 03:51:00;;;;;;;225.23;16.88;;;9.00;99.90;;;;;;5069978;28;20032;-67
2022/04/14 03:53:26;;;;;;;203.18;15.10;;;9.00;99.90;;;;;;5071517;28;20104;-67
2022/04/14 03:55:52;;;;;;;240.75;16.35;;;9.10;99.90;;;;;;5070961;28;20469;-67
2022/04/14 03:58:17;;;;;;;260.42;18.40;;;9.20;99.90;;;;;;5079329;28;20024;-67
2022/04/14 04:00:43;;;;;;;218.07;16.33;;;9.20;99.90;;;;;;5091501;28;20460;-67
2022/04/14 04:03:10;;;;;;;235.20;16.92;;;9.20;99.90;;;;;;5091641;28;20016;-67
2022/04/14 04:05:36;;;;;;;168.40;13.65;;;9.20;99.90;;;;;;5071919;28;20048;-67
2022/04/14 04:08:02;;;;;;;233.07;15.80;;;9.20;99.90;;;;;;5076497;28;20016;-67
2022/04/14 04:10:28;;;;;;;208.50;13.13;;;9.20;99.90;;;;;;5089807;28;20161;-67
2022/04/14 04:12:53;;;;;;;155.55;12.32;;;9.20;99.90;;;;;;5091276;28;20108;-67
2022/04/14 04:15:19;;;;;;;198.00;13.05;;;9.20;99.90;;;;;;5090385;28;20031;-67
2022/04/14 04:17:46;;;;;;;184.05;14.02;;;9.20;99.90;;;;;;5087518;28;20133;-67
2022/04/14 04:20:12;;;;;;;201.75;16.55;;;9.20;99.90;;;;;;5072876;28;20381;-67
2022/04/14 04:22:38;;;;;;;216.38;15.90;;;9.20;99.90;;;;;;5070546;28;20030;-67
2022/04/14 04:25:04;;;;;;;191.60;17.98;;;9.20;99.90;;;;;;5070383;28;20028;-67
2022/04/14 04:27:31;;;;;;;205.13;15.43;;;9.20;99.90;;;;;;5071874;28;20024;-68
2022/04/14 04:29:57;;;;;;;162.60;15.57;;;9.10;99.90;;;;;;5090858;28;20028;-67
2022/04/14 04:32:22;;;;;;;215.98;16.33;;;9.10;99.90;;;;;;5087943;28;20388;-67
2022/04/14 04:34:48;;;;;;;149.18;13.82;;;9.10;99.90;;;;;;5076772;28;20039;-67
2022/04/14 04:37:15;;;;;;;185.88;14.35;;;9.10;99.90;;;;;;5068435;28;20074;-67
2022/04/14 04:39:40;;;;;;;175.57;15.30;;;9.00;99.90;;;;;;5089632;28;20093;-67
2022/04/14 04:42:07;;;;;;;190.60;16.65;;;9.00;99.90;;;;;;5090869;28;20391;-67
2022/04/14 04:44:32;;;;;;;208.32;16.17;;;8.90;99.90;;;;;;5090723;28;20050;-67
2022/04/14 04:46:58;;;;;;;207.43;16.90;;;8.80;99.90;;;;;;5090676;28;20488;-67
2022/04/14 04:49:23;;;;;;;155.52;14.85;;;8.80;99.90;;;;;;5084479;28;20074;-67
2022/04/14 04:51:49;;;;;;;232.18;17.15;;;8.80;99.90;;;;;;5070648;28;20035;-67
2022/04/14 04:54:15;;;;;;;122.35;14.25;;;8.70;99.90;;;;;;5070353;28;20093;-67
2022/04/14 04:56:41;;;;;;;141.88;13.38;;;8.60;99.90;;;;;;5070438;28;20024;-67
2022/04/14 04:59:06;;;;;;;114.22;12.77;;;8.50;99.90;;;;;;5084588;28;20456;-68
2022/04/14 05:01:32;;;;;;;78.60;11.70;;;8.40;99.90;;;;;;5088618;28;20478;-67
2022/04/14 05:03:57;;;;;;;66.95;10.85;;;8.20;99.90;;;;;;5085443;28;20032;-67
2022/04/14 05:06:23;;;;;;;47.55;8.77;;;8.10;99.90;;;;;;5067045;28;20044;-67
2022/04/14 05:08:49;;;;;;;33.78;7.93;;;7.90;99.90;;;;;;5081865;28;20050;-67
2022/04/14 05:11:15;;;;;;;31.73;7.38;;;7.70;99.90;;;;;;5072603;28;20078;-66
2022/04/14 05:13:40;;;;;;;35.97;7.75;;;7.60;99.90;;;;;;5090735;28;20020;-67
2022/04/14 05:16:07;;;;;;;35.38;8.50;;;7.40;99.90;;;;;;5090616;28;20052;-67
2022/04/14 05:18:33;;;;;;;49.25;8.65;;;7.30;99.90;;;;;;5090809;28;20020;-66
2022/04/14 05:20:59;;;;;;;55.47;9.00;;;7.40;99.90;;;;;;5071587;28;20036;-66
2022/04/14 05:23:24;;;;;;;56.72;9.98;;;7.40;99.90;;;;;;5067164;28;20166;-66
2022/04/14 05:25:50;;;;;;;84.80;13.05;;;7.50;99.90;;;;;;5067210;28;20131;-66
2022/04/14 05:28:16;;;;;;;64.40;8.85;;;7.50;99.90;;;;;;5076701;28;20035;-67
2022/04/14 05:30:41;;;;;;;168.57;12.63;;;7.60;99.90;;;;;;5090817;28;20032;-67
2022/04/14 05:33:10;;;;;;;48.33;7.35;;;7.70;99.90;;;;;;5094306;28;20031;-67
2022/04/14 05:35:37;;;;;;;113.22;10.38;;;7.80;99.90;;;;;;5081113;28;20029;-67
2022/04/14 05:38:04;;;;;;;109.45;9.38;;;7.80;99.90;;;;;;5078787;28;20054;-67
2022/04/14 05:40:30;;;;;;;75.70;8.43;;;7.80;99.90;;;;;;5094284;28;20020;-67
2022/04/14 05:42:55;;;;;;;75.00;8.35;;;7.80;99.90;;;;;;5092722;28;20531;-67
2022/04/14 05:45:21;;;;;;;69.05;8.73;;;7.90;99.90;;;;;;5093953;28;20039;-67
2022/04/14 05:47:47;;;;;;;149.35;11.48;;;7.90;99.90;;;;;;5091024;28;20099;-67
2022/04/14 05:50:13;;;;;;;181.88;12.63;;;7.90;99.90;;;;;;5081604;28;20123;-69
2022/04/14 05:52:38;;;;;;;126.97;9.20;;;7.90;99.90;;;;;;5070221;28;20031;-68
2022/04/14 05:55:05;;;;;;;159.60;10.60;;;7.90;99.90;;;;;;5070692;28;20029;-68
2022/04/14 05:57:30;;;;;;;91.05;9.15;;;7.90;99.90;;;;;;5070072;28;20518;-68
2022/04/14 05:59:57;;;;;;;88.65;9.80;;;8.00;99.90;;;;;;5090537;28;20028;-67
2022/04/14 06:02:24;;;;;;;74.28;9.10;;;8.00;99.90;;;;;;5089286;28;20024;-68
2022/04/14 06:04:49;;;;;;;87.20;11.63;;;8.00;99.90;;;;;;5085594;28;20477;-68
2022/04/14 06:07:15;;;;;;;131.90;14.38;;;8.10;99.90;;;;;;5070577;28;20544;-67
2022/04/14 06:09:41;;;;;;;219.60;14.30;;;8.20;99.90;;;;;;5091473;28;20061;-67
2022/04/14 06:12:07;;;;;;;150.13;11.15;;;8.30;99.90;;;;;;5090868;28;20430;-68
2022/04/14 06:14:33;;;;;;;85.78;7.85;;;8.30;99.90;;;;;;5090170;28;20020;-67
2022/04/14 06:17:02;;;;;;;64.00;7.95;;;8.30;99.90;;;;;;5092374;28;20095;-68
2022/04/14 06:19:27;;;;;;;154.38;10.25;;;8.40;99.90;;;;;;5091013;28;20411;-67
2022/04/14 06:21:53;;;;;;;62.38;7.93;;;8.20;99.90;;;;;;5070666;28;20024;-67
2022/04/14 06:24:19;;;;;;;74.25;8.48;;;8.40;99.90;;;;;;5069561;28;20044;-67
2022/04/14 06:26:44;;;;;;;53.40;7.60;;;8.40;99.90;;;;;;5070086;28;20085;-67
2022/04/14 06:29:10;;;;;;;75.43;7.93;;;8.50;99.90;;;;;;5086407;28;20511;-67
2022/04/14 06:31:37;;;;;;;83.50;8.63;;;8.20;99.90;;;;;;5093364;28;20035;-67
2022/04/14 06:34:05;;;;;;;63.08;9.80;;;8.30;99.90;;;;;;5093169;28;20065;-67
2022/04/14 06:36:31;;;;;;;43.47;7.57;;;8.30;99.90;;;;;;5073145;28;20222;-67
2022/04/14 06:38:57;;;;;;;47.05;6.97;;;8.20;99.90;;;;;;5081304;28;20032;-68
2022/04/14 06:41:23;;;;;;;67.55;7.63;;;8.20;99.90;;;;;;5090488;28;20073;-69
2022/04/14 06:43:49;;;;;;;79.93;7.63;;;8.20;99.90;;;;;;5091775;28;20032;-68
2022/04/14 06:46:18;;;;;;;68.60;8.48;;;8.30;99.90;;;;;;5091345;28;20112;-66
2022/04/14 06:48:44;;;;;;;131.48;11.02;;;8.40;99.90;;;;;;5089286;28;20020;-68
2022/04/14 06:51:11;;;;;;;145.90;12.98;;;8.60;99.90;;;;;;5077734;28;20432;-68
2022/04/14 06:53:37;;;;;;;88.47;15.23;;;8.80;99.90;;;;;;5072520;28;20017;-67
2022/04/14 06:56:06;;;;;;;164.07;17.52;;;8.80;99.90;;;;;;5072849;28;20109;-67
2022/04/14 06:58:32;;;;;;;208.38;21.77;;;9.00;99.90;;;;;;5080319;28;20039;-67
2022/04/14 07:00:57;;;;;;;293.98;27.05;;;9.00;99.90;;;;;;5091758;28;20013;-68
2022/04/14 07:03:26;;;;;;;386.73;32.08;;;9.10;99.90;;;;;;5088992;28;20092;-68
2022/04/14 07:05:56;;;;;;;342.48;27.00;;;9.10;99.90;;;;;;5079956;28;20036;-68
2022/04/14 07:08:24;;;;;;;184.88;20.23;;;9.20;99.90;;;;;;5078513;28;20024;-67
2022/04/14 07:10:51;;;;;;;266.27;14.52;;;9.20;99.90;;;;;;5092502;28;20024;-67
2022/04/14 07:13:17;;;;;;;202.80;16.60;;;9.20;99.90;;;;;;5091021;28;20028;-67
2022/04/14 07:15:43;;;;;;;182.55;11.15;;;9.20;99.90;;;;;;5090814;28;20108;-67
2022/04/14 07:18:09;;;;;;;131.02;12.48;;;9.20;99.90;;;;;;5092443;28;20097;-67
2022/04/14 07:20:35;;;;;;;90.38;7.95;;;9.10;99.90;;;;;;5086552;28;20481;-67
2022/04/14 07:23:02;;;;;;;98.25;9.07;;;9.10;99.90;;;;;;5072161;28;20025;-68
2022/04/14 07:25:31;;;;;;;86.22;9.23;;;9.10;99.90;;;;;;5071594;28;20064;-68
2022/04/14 07:27:58;;;;;;;78.65;6.55;;;9.10;99.90;;;;;;5074401;28;20056;-68
2022/04/14 07:30:23;;;;;;;110.15;8.35;;;9.10;99.90;;;;;;5092204;28;20016;-67
2022/04/14 07:32:49;;;;;;;86.45;8.65;;;9.10;99.90;;;;;;5092162;28;20020;-68
2022/04/14 07:35:16;;;;;;;113.68;9.93;;;9.20;99.90;;;;;;5090472;28;20571;-67
2022/04/14 07:37:44;;;;;;;53.95;6.60;;;9.20;99.90;;;;;;5071860;28;20053;-68
2022/04/14 07:40:10;;;;;;;118.40;10.82;;;9.20;99.90;;;;;;5091872;28;20638;-68
2022/04/14 07:42:37;;;;;;;115.47;11.63;;;9.30;99.90;;;;;;5092055;28;20099;-67
2022/04/14 07:45:05;;;;;;;55.78;6.82;;;9.40;99.90;;;;;;5091893;28;20035;-67
2022/04/14 07:47:31;;;;;;;129.68;9.57;;;9.50;99.90;;;;;;5091745;28;20016;-67
2022/04/14 07:49:57;;;;;;;36.00;6.93;;;9.50;99.90;;;;;;5091542;28;20021;-68
2022/04/14 07:52:23;;;;;;;47.78;7.30;;;9.80;99.90;;;;;;5073141;28;20052;-68
2022/04/14 07:54:48;;;;;;;60.90;6.40;;;10.00;99.90;;;;;;5071000;28;20020;-68
2022/04/14 07:57:14;;;;;;;48.45;6.85;;;10.10;99.90;;;;;;5071419;28;20021;-67
2022/04/14 07:59:40;;;;;;;59.08;6.90;;;10.30;99.90;;;;;;5087628;28;20689;-66
2022/04/14 08:02:07;;;;;;;34.25;8.20;;;10.40;99.90;;;;;;5091474;28;20092;-67
2022/04/14 08:04:32;;;;;;;51.08;10.73;;;10.50;99.90;;;;;;5091340;28;20024;-67
2022/04/14 08:06:58;;;;;;;41.00;10.50;;;10.50;99.90;;;;;;5077664;28;20031;-67
2022/04/14 08:09:24;;;;;;;40.95;8.02;;;10.30;99.90;;;;;;5085161;28;20358;-66
2022/04/14 08:11:50;;;;;;;33.10;9.30;;;10.30;99.90;;;;;;5091192;28;20032;-68
2022/04/14 08:14:16;;;;;;;24.70;8.45;;;10.40;99.90;;;;;;5091433;28;20062;-67
2022/04/14 08:16:41;;;;;;;29.65;10.30;;;10.50;99.90;;;;;;5091036;28;20048;-66
2022/04/14 08:19:07;;;;;;;38.95;12.15;;;10.70;99.90;;;;;;5091069;28;20024;-68
2022/04/14 08:21:33;;;;;;;41.88;12.68;;;10.90;99.90;;;;;;5082040;28;20027;-68
2022/04/14 08:23:59;;;;;;;35.40;11.02;;;11.20;99.90;;;;;;5069124;28;20025;-68
2022/04/14 08:26:28;;;;;;;32.13;11.95;;;11.60;99.90;;;;;;5069206;28;20070;-67
2022/04/14 08:28:55;;;;;;;36.22;12.23;;;11.60;99.90;;;;;;5080508;28;20016;-68
2022/04/14 08:31:22;;;;;;;27.63;10.77;;;11.70;99.90;;;;;;5091385;28;20028;-68
2022/04/14 08:33:51;;;;;;;22.98;9.45;;;11.90;99.90;;;;;;5089621;28;20020;-67
2022/04/14 08:36:17;;;;;;;29.58;11.00;;;12.10;99.90;;;;;;5083658;28;20477;-67
2022/04/14 08:38:44;;;;;;;25.88;10.63;;;12.20;99.90;;;;;;5079236;28;20020;-67
2022/04/14 08:41:13;;;;;;;20.92;7.90;;;12.20;99.90;;;;;;5090714;28;20032;-67
2022/04/14 08:44:05;;;;;;;25.98;10.40;;;12.40;99.90;;;;;;5089503;28;20017;-67
2022/04/14 08:46:31;;;;;;;15.70;5.97;;;12.60;99.90;;;;;;5090850;28;20131;-67
2022/04/14 08:48:59;;;;;;;14.00;7.20;;;12.80;99.90;;;;;;5089447;28;20028;-67
2022/04/14 08:51:28;;;;;;;15.30;7.38;;;13.10;99.90;;;;;;5084517;28;20459;-66
2022/04/14 08:53:54;;;;;;;15.40;6.65;;;13.10;99.90;;;;;;5069322;28;20385;-66
2022/04/14 08:56:21;;;;;;;16.73;8.25;;;13.30;99.90;;;;;;5070393;28;20027;-67
2022/04/14 08:58:48;;;;;;;18.85;7.28;;;13.50;99.90;;;;;;5078701;28;20534;-68
2022/04/14 09:01:14;;;;;;;20.02;8.85;;;13.50;99.90;;;;;;5090934;28;20028;-68
2022/04/14 09:03:42;;;;;;;17.00;9.25;;;13.80;99.90;;;;;;5090569;28;20024;-68
2022/04/14 09:06:08;;;;;;;21.30;9.93;;;13.90;99.90;;;;;;5088886;28;20032;-67
2022/04/14 09:08:34;;;;;;;21.98;9.20;;;14.10;99.90;;;;;;5080998;28;20032;-67
2022/04/14 09:11:01;;;;;;;20.33;9.63;;;14.00;99.90;;;;;;5094915;28;20028;-68
2022/04/14 09:13:27;;;;;;;23.88;12.43;;;14.00;99.90;;;;;;5093569;28;20042;-66
2022/04/14 09:15:52;;;;;;;25.45;12.27;;;13.80;99.90;;;;;;5094915;28;20039;-67
2022/04/14 09:18:18;;;;;;;29.35;13.43;;;13.60;99.90;;;;;;5094466;28;20073;-67
2022/04/14 09:20:48;;;;;;;23.45;11.85;;;13.30;99.90;;;;;;5094662;28;20077;-67
2022/04/14 09:23:14;;;;;;;16.55;7.15;;;12.90;99.90;;;;;;5092803;28;20594;-67
2022/04/14 09:25:40;;;;;;;14.85;6.65;;;12.70;99.90;;;;;;5094509;28;20093;-67
2022/04/14 09:28:14;;;;;;;15.00;6.85;;;12.80;99.90;;;;;;5094817;28;20024;-67
2022/04/14 09:30:56;;;;;;;17.63;7.88;;;12.80;99.90;;;;;;5094742;28;20094;-67
2022/04/14 09:33:22;;;;;;;13.75;6.47;;;12.80;99.90;;;;;;5094560;28;20024;-67
2022/04/14 09:36:06;;;;;;;13.57;7.47;;;13.00;99.90;;;;;;5094403;28;20047;-65
2022/04/14 09:38:56;;;;;;;15.60;6.88;;;13.10;99.90;;;;;;5094006;28;20055;-67
2022/04/14 09:41:34;;;;;;;15.95;7.45;;;13.30;99.90;;;;;;5094408;28;20582;-68
2022/04/14 09:44:05;;;;;;;21.08;7.85;;;13.60;99.90;;;;;;5094149;28;20024;-67
2022/04/14 09:46:32;;;;;;;20.65;7.45;;;13.70;99.90;;;;;;5094390;28;20057;-67
2022/04/14 09:49:09;;;;;;;14.88;6.85;;;14.00;99.90;;;;;;5094315;28;20033;-66
2022/04/14 09:51:45;;;;;;;12.48;6.03;;;14.40;99.90;;;;;;5090968;28;20035;-68
2022/04/14 09:54:15;;;;;;;15.10;5.45;;;14.50;99.90;;;;;;5073766;28;20024;-67
2022/04/14 09:56:43;;;;;;;13.18;5.68;;;14.60;99.90;;;;;;5073692;28;20016;-67
2022/04/14 09:59:12;;;;;;;13.02;5.28;;;14.60;99.90;;;;;;5084402;28;20085;-67
2022/04/14 10:01:38;;;;;;;13.60;4.90;;;14.60;99.90;;;;;;5093877;28;20020;-67
2022/04/14 10:04:07;;;;;;;16.25;4.68;;;14.60;99.90;;;;;;5094026;28;20108;-66
2022/04/14 10:06:33;;;;;;;14.30;4.47;;;14.60;99.90;;;;;;5091594;28;20262;-66
2022/04/14 10:08:59;;;;;;;7.95;4.10;;;14.70;99.90;;;;;;5082568;28;20028;-66
2022/04/14 10:11:29;;;;;;;9.00;3.80;;;14.80;99.90;;;;;;5093888;28;20020;-66
2022/04/14 10:14:10;;;;;;;8.63;3.72;;;14.70;99.90;;;;;;5092309;28;20024;-67
2022/04/14 10:16:39;;;;;;;9.15;3.28;;;14.90;99.90;;;;;;5093283;28;20044;-66
2022/04/14 10:19:09;;;;;;;7.57;2.80;;;15.00;99.90;;;;;;5093501;28;20046;-67
2022/04/14 10:21:36;;;;;;;5.97;3.10;;;15.20;99.90;;;;;;5092844;28;20131;-66
2022/04/14 10:24:03;;;;;;;6.75;3.60;;;15.10;99.90;;;;;;5071903;28;20290;-66
2022/04/14 10:26:30;;;;;;;6.65;3.85;;;15.20;99.90;;;;;;5073244;28;20031;-67
2022/04/14 10:28:56;;;;;;;8.82;3.80;;;15.20;99.90;;;;;;5080220;28;20028;-67
2022/04/14 10:31:22;;;;;;;7.72;3.10;;;15.20;99.90;;;;;;5093377;28;20109;-66
2022/04/14 10:33:48;;;;;;;5.38;2.95;;;15.30;99.90;;;;;;5093243;28;20476;-67
2022/04/14 10:36:14;;;;;;;8.63;4.00;;;15.40;99.90;;;;;;5091814;28;20020;-65
2022/04/14 10:38:44;;;;;;;8.57;4.20;;;15.40;99.90;;;;;;5091189;28;20051;-68
2022/04/14 10:41:15;;;;;;;7.05;3.35;;;15.70;99.90;;;;;;5093024;28;20020;-66
2022/04/14 10:43:43;;;;;;;7.47;3.63;;;15.80;99.90;;;;;;5093271;28;20454;-66
2022/04/14 10:46:11;;;;;;;6.95;3.42;;;15.90;99.90;;;;;;5092814;28;20118;-66
2022/04/14 10:48:40;;;;;;;10.98;4.20;;;15.80;99.90;;;;;;5092732;28;20045;-65
2022/04/14 10:51:26;;;;;;;11.38;3.45;;;15.70;99.90;;;;;;5093009;28;20032;-67
2022/04/14 10:53:56;;;;;;;4.88;2.60;;;15.80;99.90;;;;;;5091366;28;20028;-66
2022/04/14 10:56:33;;;;;;;7.28;2.80;;;15.70;99.90;;;;;;5092739;28;20027;-66
2022/04/14 10:59:00;;;;;;;9.20;2.60;;;15.80;99.90;;;;;;5092459;28;20016;-67
2022/04/14 11:04:32;;;;;;;12.43;2.58;;;16.10;99.90;;;;;;5092834;28;20032;-66
2022/04/14 11:07:08;;;;;;;8.23;2.50;;;16.10;99.90;;;;;;5089948;28;20028;-67
2022/04/14 11:12:08;;;;;;;8.50;2.83;;;16.40;99.90;;;;;;5092705;28;20066;-67
2022/04/14 11:14:56;;;;;;;3.03;1.02;;;16.50;99.90;;;;;;5092672;28;20402;-67
2022/04/14 11:17:30;;;;;;;5.10;1.25;;;16.90;99.90;;;;;;5092445;28;20067;-67
2022/04/14 11:20:12;;;;;;;2.63;0.88;;;17.00;99.90;;;;;;5091093;28;20055;-67
2022/04/14 11:23:26;;;;;;;2.67;1.08;;;17.30;99.90;;;;;;5086808;28;20095;-67
2022/04/14 11:26:01;;;;;;;2.58;0.32;;;17.40;96.40;;;;;;5067052;28;20043;-67
2022/04/14 11:28:31;;;;;;;3.33;0.77;;;17.40;87.30;;;;;;5074967;28;20495;-67
2022/04/14 11:30:58;;;;;;;2.28;0.80;;;17.40;89.10;;;;;;5092126;28;20025;-66
2022/04/14 11:33:32;;;;;;;4.38;1.30;;;17.30;88.90;;;;;;5092303;28;20020;-66
2022/04/14 11:36:13;;;;;;;3.88;1.48;;;17.10;99.90;;;;;;5092163;28;20030;-68
2022/04/14 11:38:58;;;;;;;3.53;1.15;;;16.90;99.90;;;;;;5084289;28;20024;-68
2022/04/14 11:41:37;;;;;;;5.03;1.65;;;17.10;99.90;;;;;;5090794;28;20020;-66
2022/04/14 11:44:07;;;;;;;10.77;1.90;;;17.40;99.90;;;;;;5091846;28;20299;-66
2022/04/14 11:46:34;;;;;;;3.78;1.42;;;17.50;99.90;;;;;;5091933;28;20130;-67
2022/04/14 11:49:00;;;;;;;5.95;1.92;;;17.30;99.90;;;;;;5091932;28;20043;-68
2022/04/14 11:51:27;;;;;;;7.25;2.30;;;16.80;99.90;;;;;;5091882;28;20297;-67
2022/04/14 11:53:55;;;;;;;9.60;2.20;;;16.60;99.90;;;;;;5076452;28;20067;-67
2022/04/14 11:56:22;;;;;;;9.00;2.13;;;16.60;99.90;;;;;;5071155;28;20032;-67
2022/04/14 11:58:48;;;;;;;6.45;1.80;;;17.00;99.90;;;;;;5077516;28;20467;-66
2022/04/14 12:01:14;;;;;;;4.60;1.52;;;17.30;99.90;;;;;;5091770;28;20485;-67
2022/04/14 12:03:43;;;;;;;3.42;1.50;;;17.50;99.90;;;;;;5091830;28;20102;-66
2022/04/14 12:06:16;;;;;;;3.67;1.67;;;17.70;99.90;;;;;;5091517;28;20028;-67
2022/04/14 12:09:02;;;;;;;3.30;1.30;;;17.80;99.90;;;;;;5085278;28;20028;-68
2022/04/14 12:11:31;;;;;;;4.05;1.02;;;18.10;98.80;;;;;;5091053;28;20036;-66
2022/04/14 12:13:57;;;;;;;3.20;1.40;;;18.50;94.80;;;;;;5090161;28;20016;-67
2022/04/14 12:16:23;;;;;;;7.05;1.92;;;18.40;97.00;;;;;;5091175;28;20048;-67
2022/04/14 12:18:55;;;;;;;7.45;1.60;;;18.30;96.80;;;;;;5091411;28;20097;-67
2022/04/14 12:21:23;;;;;;;7.45;1.48;;;18.40;97.10;;;;;;5091325;28;20052;-68
2022/04/14 12:23:52;;;;;;;7.65;1.30;;;18.50;96.70;;;;;;5079806;28;20033;-68
2022/04/14 12:26:18;;;;;;;8.88;1.33;;;18.80;95.20;;;;;;5070842;28;20032;-67
2022/04/14 12:28:48;;;;;;;4.03;1.25;;;19.50;91.50;;;;;;5076230;28;20473;-66
2022/04/14 12:31:20;;;;;;;8.75;1.60;;;19.90;86.30;;;;;;5091220;28;20501;-66
2022/04/14 12:33:59;;;;;;;5.32;1.33;;;20.50;79.90;;;;;;5091200;28;20020;-67
2022/04/14 12:36:35;;;;;;;2.67;1.02;;;20.60;72.20;;;;;;5090906;28;20036;-66
2022/04/14 12:39:04;;;;;;;8.25;1.80;;;20.70;67.00;;;;;;5086412;28;20071;-66
2022/04/14 12:41:37;;;;;;;4.55;1.08;;;20.50;68.60;;;;;;5090840;28;20485;-67
2022/04/14 12:44:03;;;;;;;2.92;1.00;;;20.50;66.70;;;;;;5089834;28;20027;-67